Blackhawk Village, Iowa
Current Conditions -  °F | °C
As of 9:54 AM on Friday 21 Nov 2014 (Local Time) from KALO Reporting Station
Clear Clear  
Wind Chill:   Ceiling: Unl
Heat Index: 19°   Visibility: 10mi
Dew Point:   Wind: 13mph
Humidity: 65%   Direction: 160°SSE
Pressure: 30.31"   Gusts: NA
Location:  42.5035°N, 92.4936°W
Report Text: KALO 211554Z 16011KT 10SM CLR M07/M13 A3031 RMK AO2 SLP284 T10721128
Loading
Personal Weather Stations






























Interactive Weather Map New forecast layout! Learn more

10-Day Weather Forecast

Advertisements
Track Severe Weather on mobile